createdAt,value
2019-04-07T00:01:58.396Z,94096.31
2019-04-07T00:04:28.774Z,94105.50
2019-04-07T00:06:59.180Z,94097.09
2019-04-07T00:09:29.892Z,94104.13
2019-04-07T00:12:01.972Z,94113.26
2019-04-07T00:14:32.934Z,94111.45
2019-04-07T00:17:03.705Z,94111.45
2019-04-07T00:19:34.163Z,94107.80
2019-04-07T00:22:04.561Z,94113.30
2019-04-07T00:24:35.292Z,94107.17
2019-04-07T00:27:05.753Z,94111.45
2019-04-07T00:29:36.632Z,94108.73
2019-04-07T00:32:07.152Z,94114.78
2019-04-07T00:34:38.150Z,94110.67
2019-04-07T00:37:08.470Z,94110.67
2019-04-07T00:39:40.231Z,94115.05
2019-04-07T00:42:11.406Z,94105.69
2019-04-07T00:44:43.401Z,94115.27
2019-04-07T00:47:14.076Z,94106.63
2019-04-07T00:49:45.074Z,94106.12
2019-04-07T00:52:17.313Z,94112.38
2019-04-07T00:54:47.957Z,94115.16
2019-04-07T00:57:18.223Z,94104.52
2019-04-07T00:59:48.921Z,94101.81
2019-04-07T01:02:22.312Z,94109.61
2019-04-07T01:04:52.751Z,94106.41
2019-04-07T01:07:23.397Z,94096.73
2019-04-07T01:09:54.212Z,94095.48
2019-04-07T01:12:24.818Z,94096.89
2019-04-07T01:14:55.392Z,94095.55
2019-04-07T01:17:27.237Z,94090.39
2019-04-07T01:19:57.576Z,94090.39
2019-04-07T01:22:27.959Z,94096.71
2019-04-07T01:24:58.497Z,94089.22
2019-04-07T01:27:30.045Z,94088.09
2019-04-07T01:30:00.838Z,94079.05
2019-04-07T01:32:32.203Z,94079.09
2019-04-07T01:35:02.568Z,94078.63
2019-04-07T01:37:33.229Z,94078.15
2019-04-07T01:40:04.526Z,94072.55
2019-04-07T01:43:09.212Z,94078.31
2019-04-07T01:45:55.743Z,94073.62
2019-04-07T01:48:42.213Z,94074.80
2019-04-07T01:51:37.607Z,94074.95
2019-04-07T01:54:18.387Z,94074.30
2019-04-07T01:57:03.009Z,94068.36
2019-04-07T01:59:54.061Z,94074.89
2019-04-07T02:02:43.369Z,94063.16
2019-04-07T02:05:36.561Z,94067.78
2019-04-07T02:08:24.070Z,94063.69
2019-04-07T02:11:23.713Z,94066.69
2019-04-07T02:14:16.086Z,94061.84
2019-04-07T02:16:51.607Z,94064.34
2019-04-07T02:19:49.941Z,94075.66
2019-04-07T02:22:51.127Z,94067.02
2019-04-07T02:25:40.578Z,94060.74
2019-04-07T02:28:26.453Z,94064.32
2019-04-07T02:31:17.187Z,94067.44
2019-04-07T02:33:59.727Z,94066.09
2019-04-07T02:36:49.946Z,94068.16
2019-04-07T02:39:36.845Z,94069.38
2019-04-07T02:42:32.519Z,94066.03
2019-04-07T02:45:30.592Z,94067.77
2019-04-07T02:48:22.622Z,94069.62
2019-04-07T02:51:18.770Z,94065.98
2019-04-07T02:54:08.015Z,94068.31
2019-04-07T02:57:02.251Z,94067.52
2019-04-07T02:59:44.415Z,94060.46
2019-04-07T03:02:23.976Z,94077.45
2019-04-07T03:05:06.304Z,94067.88
2019-04-07T03:07:48.890Z,94069.83
2019-04-07T03:10:36.626Z,94066.00
2019-04-07T03:13:35.814Z,94058.70
2019-04-07T03:16:27.997Z,94066.84
2019-04-07T03:19:10.051Z,94061.89
2019-04-07T03:21:47.941Z,94063.52
2019-04-07T03:24:53.243Z,94062.50
2019-04-07T03:27:41.156Z,94058.59
2019-04-07T03:30:32.924Z,94063.04
2019-04-07T03:33:25.478Z,94060.84
2019-04-07T03:36:06.683Z,94057.13
2019-04-07T03:38:59.264Z,94058.78
2019-04-07T03:41:38.666Z,94062.25
2019-04-07T03:44:27.754Z,94057.57
2019-04-07T03:47:15.054Z,94056.78
2019-04-07T03:49:53.436Z,94057.59
2019-04-07T03:52:33.976Z,94049.73
2019-04-07T03:55:22.866Z,94056.36
2019-04-07T03:58:10.704Z,94055.47
2019-04-07T04:01:35.579Z,94058.25
2019-04-07T04:04:44.502Z,94051.87
2019-04-07T04:07:37.263Z,94054.13
2019-04-07T04:10:23.648Z,94053.83
2019-04-07T04:13:12.313Z,94054.48
2019-04-07T04:16:16.256Z,94052.50
2019-04-07T04:18:46.664Z,94055.56
2019-04-07T04:21:17.754Z,94055.56
2019-04-07T04:23:49.662Z,94056.80
2019-04-07T04:26:20.316Z,94054.44
2019-04-07T04:28:50.806Z,94051.56
2019-04-07T04:31:21.783Z,94059.62
2019-04-07T04:33:52.414Z,94057.14
2019-04-07T04:36:22.905Z,94057.30
2019-04-07T04:38:54.127Z,94056.87
2019-04-07T04:41:25.226Z,94051.34
2019-04-07T04:43:55.609Z,94055.02
2019-04-07T04:46:27.237Z,94056.02
2019-04-07T04:48:58.889Z,94058.35
2019-04-07T04:51:29.587Z,94051.74
2019-04-07T04:54:00.456Z,94054.63
2019-04-07T04:56:31.132Z,94063.18
2019-04-07T04:59:01.406Z,94055.97
2019-04-07T05:01:32.207Z,94063.37
2019-04-07T05:04:02.869Z,94069.17
2019-04-07T05:06:33.401Z,94062.72
2019-04-07T05:09:05.759Z,94071.18
2019-04-07T05:11:37.062Z,94071.58
2019-04-07T05:14:08.987Z,94069.55
2019-04-07T05:16:40.270Z,94067.19
2019-04-07T05:19:11.023Z,94071.78
2019-04-07T05:21:41.703Z,94074.38
2019-04-07T05:24:13.014Z,94072.56
2019-04-07T05:26:43.468Z,94076.06
2019-04-07T05:29:13.818Z,94074.32
2019-04-07T05:31:44.823Z,94077.11
2019-04-07T05:34:19.317Z,94063.13
2019-04-07T05:36:47.843Z,94069.52
2019-04-07T05:39:18.689Z,94066.39
2019-04-07T05:41:49.363Z,94070.10
2019-04-07T05:44:19.938Z,94071.67
2019-04-07T05:46:50.406Z,94073.05
2019-04-07T05:49:22.568Z,94069.45
2019-04-07T05:51:53.391Z,94073.92
2019-04-07T05:54:24.048Z,94080.98
2019-04-07T05:56:58.608Z,94073.75
2019-04-07T05:59:26.731Z,94074.62
2019-04-07T06:02:01.247Z,94081.70
2019-04-07T06:04:29.208Z,94080.66
2019-04-07T06:07:00.324Z,94080.63
2019-04-07T06:09:33.541Z,94075.16
2019-04-07T06:12:05.945Z,94074.64
2019-04-07T06:14:34.901Z,94078.55
2019-04-07T06:17:06.483Z,94082.97
2019-04-07T06:19:40.561Z,94085.06
2019-04-07T06:22:08.951Z,94078.24
2019-04-07T06:24:40.787Z,94072.44
2019-04-07T06:27:13.793Z,94082.16
2019-04-07T06:29:43.676Z,94084.99
2019-04-07T06:32:14.362Z,94086.05
2019-04-07T06:34:48.680Z,94085.22
2019-04-07T06:37:18.712Z,94080.92
2019-04-07T06:39:50.791Z,94090.06
2019-04-07T06:42:21.058Z,94092.25
2019-04-07T06:44:52.208Z,94088.98
2019-04-07T06:47:26.510Z,94089.74
2019-04-07T06:50:15.776Z,94088.86
2019-04-07T06:53:20.645Z,94091.16
2019-04-07T06:56:03.327Z,94092.20
2019-04-07T06:58:55.807Z,94088.73
2019-04-07T07:01:53.640Z,94096.37
2019-04-07T07:04:32.659Z,94085.28
2019-04-07T07:07:22.669Z,94079.77
2019-04-07T07:10:11.693Z,94088.05
2019-04-07T07:13:09.570Z,94091.80
2019-04-07T07:16:07.934Z,94091.39
2019-04-07T07:18:51.196Z,94089.26
2019-04-07T07:21:39.706Z,94093.41
2019-04-07T07:24:10.463Z,94093.06
2019-04-07T07:26:41.119Z,94097.68
2019-04-07T07:29:14.697Z,94095.53
2019-04-07T07:31:43.875Z,94104.08
2019-04-07T07:34:14.507Z,94094.52
2019-04-07T07:36:46.632Z,94092.73
2019-04-07T07:39:17.650Z,94101.37
2019-04-07T07:41:50.337Z,94106.63
2019-04-07T07:44:20.388Z,94098.66
2019-04-07T07:46:51.806Z,94096.22
2019-04-07T07:49:22.175Z,94094.46
2019-04-07T07:51:54.262Z,94098.20
2019-04-07T07:54:27.727Z,94094.76
2019-04-07T07:56:57.068Z,94100.42
2019-04-07T07:59:30.587Z,94097.87
2019-04-07T08:01:59.729Z,94100.02
2019-04-07T08:04:30.235Z,94098.30
2019-04-07T08:07:02.320Z,94102.63
2019-04-07T08:09:32.963Z,94103.88
2019-04-07T08:12:03.731Z,94101.56
2019-04-07T08:14:35.997Z,94106.77
2019-04-07T08:17:06.324Z,94099.43
2019-04-07T08:19:40.687Z,94098.05
2019-04-07T08:22:09.239Z,94102.09
2019-04-07T08:24:40.503Z,94097.50
2019-04-07T08:27:12.051Z,94093.55
2019-04-07T08:29:42.643Z,94097.70
2019-04-07T08:32:14.156Z,94097.41
2019-04-07T08:34:44.857Z,94098.89
2019-04-07T08:37:16.187Z,94092.77
2019-04-07T08:39:47.629Z,94095.02
2019-04-07T08:42:19.641Z,94090.32
2019-04-07T08:44:50.863Z,94081.64
2019-04-07T08:47:23.140Z,94083.71
2019-04-07T08:49:55.597Z,94081.22
2019-04-07T08:52:26.041Z,94072.55
2019-04-07T08:54:56.646Z,94073.52
2019-04-07T08:57:30.123Z,94070.37
2019-04-07T08:59:59.015Z,94070.37
2019-04-07T09:02:31.057Z,94068.72
2019-04-07T09:05:01.391Z,94064.41
2019-04-07T09:07:33.387Z,94056.50
2019-04-07T09:10:03.762Z,94053.60
2019-04-07T09:12:36.052Z,94055.31
2019-04-07T09:15:11.010Z,94050.88
2019-04-07T09:17:53.185Z,94044.73
2019-04-07T09:20:42.383Z,94053.30
2019-04-07T09:23:27.482Z,94051.81
2019-04-07T09:26:36.586Z,94040.03
2019-04-07T09:29:26.059Z,94047.04
2019-04-07T09:32:18.197Z,94046.27
2019-04-07T09:35:10.218Z,94050.17
2019-04-07T09:38:03.155Z,94043.17
2019-04-07T09:40:52.795Z,94049.77
2019-04-07T09:43:40.949Z,94040.22
2019-04-07T09:46:20.143Z,94040.20
2019-04-07T09:49:07.836Z,94026.72
2019-04-07T09:51:46.603Z,94030.09
2019-04-07T09:54:38.742Z,94028.20
2019-04-07T09:57:28.169Z,94029.45
2019-04-07T10:00:21.592Z,94020.61
2019-04-07T10:03:21.937Z,94022.29
2019-04-07T10:06:03.223Z,94013.09
2019-04-07T10:08:58.885Z,94014.04
2019-04-07T10:11:48.779Z,94007.66
2019-04-07T10:14:42.634Z,94008.38
2019-04-07T10:17:19.519Z,94003.41
2019-04-07T10:20:08.752Z,94007.18
2019-04-07T10:22:56.407Z,93993.72
2019-04-07T10:25:42.286Z,93995.06
2019-04-07T10:28:40.069Z,93991.84
2019-04-07T10:31:20.594Z,93985.08
2019-04-07T10:34:13.858Z,93982.19
2019-04-07T10:37:08.996Z,93971.39
2019-04-07T10:39:44.568Z,93972.50
2019-04-07T10:42:33.508Z,93967.88
2019-04-07T10:45:22.890Z,93967.69
2019-04-07T10:48:21.189Z,93970.38
2019-04-07T10:51:19.765Z,93967.86
2019-04-07T10:54:21.276Z,93963.63
2019-04-07T10:57:02.185Z,93962.98
2019-04-07T10:59:41.872Z,93960.17
2019-04-07T11:02:33.933Z,93960.19
2019-04-07T11:05:15.719Z,93953.55
2019-04-07T11:07:58.700Z,93958.28
2019-04-07T11:10:55.544Z,93949.97
2019-04-07T11:13:39.152Z,93947.44
2019-04-07T11:16:40.417Z,93945.27
2019-04-07T11:19:36.292Z,93947.42
2019-04-07T11:22:26.561Z,93935.09
2019-04-07T11:25:32.215Z,93937.34
2019-04-07T11:28:30.618Z,93928.72
2019-04-07T11:31:15.732Z,93942.66
2019-04-07T11:33:59.634Z,93930.30
2019-04-07T11:36:35.335Z,93927.56
2019-04-07T11:39:18.820Z,93923.01
2019-04-07T11:42:13.059Z,93931.80
2019-04-07T11:44:59.686Z,93926.53
2019-04-07T11:47:50.963Z,93929.11
2019-04-07T11:50:43.033Z,93929.59
2019-04-07T11:53:21.406Z,93927.49
2019-04-07T11:56:13.410Z,93920.13
2019-04-07T11:58:54.166Z,93920.47
2019-04-07T12:01:39.474Z,93907.38
2019-04-07T12:04:29.532Z,93915.70
2019-04-07T12:07:25.157Z,93910.23
2019-04-07T12:10:12.721Z,93905.72
2019-04-07T12:12:53.818Z,93905.49
2019-04-07T12:15:35.827Z,93903.24
2019-04-07T12:18:34.241Z,93898.85
2019-04-07T12:21:27.864Z,93896.59
2019-04-07T12:24:27.538Z,93893.68
2019-04-07T12:27:27.866Z,93888.55
2019-04-07T12:30:18.163Z,93887.86
2019-04-07T12:33:11.463Z,93881.96
2019-04-07T12:36:06.208Z,93886.48
2019-04-07T12:38:54.292Z,93881.61
2019-04-07T12:41:38.099Z,93879.27
2019-04-07T12:44:30.021Z,93880.82
2019-04-07T12:47:28.419Z,93886.73
2019-04-07T12:50:18.865Z,93876.80
2019-04-07T12:53:12.295Z,93877.97
2019-04-07T12:56:02.006Z,93877.47
2019-04-07T12:58:48.536Z,93872.39
2019-04-07T13:01:38.221Z,93874.30
2019-04-07T13:04:36.738Z,93873.39
2019-04-07T13:07:44.053Z,93876.29
2019-04-07T13:10:49.401Z,93868.77
2019-04-07T13:13:45.017Z,93869.88
2019-04-07T13:16:32.647Z,93862.80
2019-04-07T13:19:28.568Z,93865.66
2019-04-07T13:22:23.719Z,93868.47
2019-04-07T13:25:32.323Z,93864.59
2019-04-07T13:28:23.703Z,93859.70
2019-04-07T13:31:02.933Z,93858.21
2019-04-07T13:33:42.362Z,93865.24
2019-04-07T13:36:31.849Z,93859.16
2019-04-07T13:39:17.961Z,93868.61
2019-04-07T13:42:16.471Z,93860.11
2019-04-07T13:45:11.244Z,93860.25
2019-04-07T13:47:52.468Z,93857.36
2019-04-07T13:50:41.734Z,93853.98
2019-04-07T13:53:31.767Z,93852.77
2019-04-07T13:56:15.599Z,93853.23
2019-04-07T13:59:11.237Z,93848.58
2019-04-07T14:01:52.432Z,93856.61
2019-04-07T14:04:47.822Z,93856.66
2019-04-07T14:07:42.838Z,93852.69
2019-04-07T14:10:41.210Z,93852.55
2019-04-07T14:13:21.012Z,93849.91
2019-04-07T14:16:17.045Z,93843.31
2019-04-07T14:19:12.449Z,93842.78
2019-04-07T14:22:03.282Z,93838.58
2019-04-07T14:24:52.604Z,93840.98
2019-04-07T14:27:32.237Z,93846.11
2019-04-07T14:30:14.042Z,93832.88
2019-04-07T14:33:10.066Z,93844.10
2019-04-07T14:35:59.716Z,93840.09
2019-04-07T14:38:48.189Z,93839.83
2019-04-07T14:41:47.340Z,93837.77
2019-04-07T14:44:28.210Z,93838.02
2019-04-07T14:47:22.215Z,93835.66
2019-04-07T14:50:12.147Z,93838.23
2019-04-07T14:53:03.115Z,93839.02
2019-04-07T14:55:50.911Z,93834.72
2019-04-07T14:58:38.373Z,93845.16
2019-04-07T15:01:41.125Z,93841.05
2019-04-07T15:04:11.467Z,93834.95
2019-04-07T15:06:41.955Z,93841.52
2019-04-07T15:09:28.588Z,93846.95
2019-04-07T15:12:23.733Z,93841.99
2019-04-07T15:14:50.087Z,93848.88
2019-04-07T15:17:20.980Z,93847.25
2019-04-07T15:19:51.482Z,93848.94
2019-04-07T15:22:25.118Z,93845.03
2019-04-07T15:24:53.818Z,93846.19
2019-04-07T15:27:25.176Z,93846.19
2019-04-07T15:29:56.695Z,93845.03
2019-04-07T15:32:29.575Z,93845.03
2019-04-07T15:35:00.032Z,93848.98
2019-04-07T15:37:30.684Z,93845.30
2019-04-07T15:40:03.628Z,93845.30
2019-04-07T15:42:40.432Z,93855.89
2019-04-07T15:45:06.412Z,93854.13
2019-04-07T15:47:36.812Z,93852.34
2019-04-07T15:50:08.410Z,93847.98
2019-04-07T15:52:42.148Z,93855.56
2019-04-07T15:55:11.568Z,93854.70
2019-04-07T15:57:42.820Z,93857.23
2019-04-07T16:00:13.442Z,93857.23
2019-04-07T16:02:44.481Z,93854.65
2019-04-07T16:05:15.874Z,93854.73
2019-04-07T16:07:46.727Z,93851.09
2019-04-07T16:10:21.251Z,93859.48
2019-04-07T16:12:52.376Z,93853.14
2019-04-07T16:15:21.543Z,93850.01
2019-04-07T16:17:52.330Z,93860.16
2019-04-07T16:20:26.280Z,93851.78
2019-04-07T16:22:55.514Z,93856.73
2019-04-07T16:25:28.195Z,93864.20
2019-04-07T16:27:59.075Z,93858.67
2019-04-07T16:30:30.444Z,93861.06
2019-04-07T16:33:03.818Z,93855.55
2019-04-07T16:35:32.804Z,93859.95
2019-04-07T16:38:03.176Z,93852.88
2019-04-07T16:40:34.995Z,93858.67
2019-04-07T16:43:13.287Z,93860.46
2019-04-07T16:45:37.782Z,93862.03
2019-04-07T16:48:09.007Z,93864.72
2019-04-07T16:50:39.392Z,93867.84
2019-04-07T16:53:10.675Z,93874.67
2019-04-07T16:55:47.597Z,93863.58
2019-04-07T16:58:15.868Z,93870.73
2019-04-07T17:00:47.359Z,93888.30
2019-04-07T17:03:18.414Z,93868.34
2019-04-07T17:05:48.691Z,93869.89
2019-04-07T17:08:22.129Z,93871.47
2019-04-07T17:10:51.081Z,93871.38
2019-04-07T17:13:31.354Z,93873.14
2019-04-07T17:15:54.047Z,93875.32
2019-04-07T17:18:39.385Z,93877.55
2019-04-07T17:21:15.688Z,93882.66
2019-04-07T17:23:47.605Z,93880.79
2019-04-07T17:26:18.212Z,93883.49
2019-04-07T17:28:49.843Z,93886.90
2019-04-07T17:31:20.850Z,93888.62
2019-04-07T17:33:52.104Z,93882.38
2019-04-07T17:36:23.916Z,93881.83
2019-04-07T17:39:14.348Z,93884.17
2019-04-07T17:41:48.343Z,93890.41
2019-04-07T17:44:47.836Z,93894.13
2019-04-07T17:47:33.031Z,93890.22
2019-04-07T17:50:17.858Z,93885.92
2019-04-07T17:53:06.464Z,93894.81
2019-04-07T17:55:48.010Z,93903.47
2019-04-07T17:58:39.667Z,93905.14
2019-04-07T18:01:29.190Z,93912.69
2019-04-07T18:04:24.987Z,93908.29
2019-04-07T18:07:07.969Z,93914.42
2019-04-07T18:10:09.998Z,93917.47
2019-04-07T18:12:49.277Z,93924.80
2019-04-07T18:15:45.565Z,93913.54
2019-04-07T18:18:26.399Z,93915.02
2019-04-07T18:21:18.018Z,93913.64
2019-04-07T18:24:10.555Z,93910.25
2019-04-07T18:27:14.454Z,93919.84
2019-04-07T18:29:59.697Z,93922.74
2019-04-07T18:32:46.151Z,93922.16
2019-04-07T18:35:38.431Z,93923.30
2019-04-07T18:38:30.669Z,93919.37
2019-04-07T18:41:20.154Z,93922.51
2019-04-07T18:44:09.035Z,93920.09
2019-04-07T18:47:20.852Z,93916.02
2019-04-07T18:50:12.180Z,93920.72
2019-04-07T18:53:00.341Z,93923.67
2019-04-07T18:55:52.628Z,93919.70
2019-04-07T18:58:34.425Z,93916.66
2019-04-07T19:01:26.964Z,93920.05
2019-04-07T19:04:17.035Z,93919.26
2019-04-07T19:07:15.181Z,93918.96
2019-04-07T19:10:03.762Z,93919.16
2019-04-07T19:12:43.207Z,93921.20
2019-04-07T19:15:27.604Z,93919.83
2019-04-07T19:18:22.915Z,93916.33
2019-04-07T19:21:13.835Z,93924.98
2019-04-07T19:24:00.052Z,93916.56
2019-04-07T19:26:54.912Z,93917.82
2019-04-07T19:29:50.992Z,93925.69
2019-04-07T19:32:31.252Z,93920.53
2019-04-07T19:35:41.188Z,93914.59
2019-04-07T19:38:32.667Z,93919.40
2019-04-07T19:41:20.763Z,93911.86
2019-04-07T19:44:01.957Z,93916.78
2019-04-07T19:46:47.056Z,93915.37
2019-04-07T19:49:35.017Z,93905.94
2019-04-07T19:52:34.227Z,93907.91
2019-04-07T19:55:36.756Z,93900.52
2019-04-07T19:58:24.511Z,93904.94
2019-04-07T20:01:04.879Z,93911.88
2019-04-07T20:03:54.129Z,93913.89
2019-04-07T20:06:42.166Z,93908.39
2019-04-07T20:09:39.511Z,93911.66
2019-04-07T20:12:16.427Z,93902.53
2019-04-07T20:15:16.052Z,93905.38
2019-04-07T20:17:59.205Z,93905.00
2019-04-07T20:21:03.577Z,93896.51
2019-04-07T20:24:08.713Z,93897.52
2019-04-07T20:26:58.814Z,93896.55
2019-04-07T20:29:47.171Z,93892.81
2019-04-07T20:32:29.521Z,93891.79
2019-04-07T20:35:33.792Z,93892.12
2019-04-07T20:38:40.139Z,93897.07
2019-04-07T20:41:29.987Z,93887.42
2019-04-07T20:44:30.826Z,93892.14
2019-04-07T20:47:31.739Z,93887.94
2019-04-07T20:50:36.448Z,93898.83
2019-04-07T20:53:29.111Z,93895.32
2019-04-07T20:56:16.502Z,93892.61
2019-04-07T20:59:15.355Z,93891.91
2019-04-07T21:02:23.337Z,93893.75
2019-04-07T21:05:12.616Z,93891.39
2019-04-07T21:08:08.339Z,93897.81
2019-04-07T21:11:01.568Z,93896.47
2019-04-07T21:13:47.106Z,93895.23
2019-04-07T21:16:46.571Z,93891.38
2019-04-07T21:19:42.997Z,93891.65
2019-04-07T21:22:29.936Z,93882.36
2019-04-07T21:25:24.265Z,93890.34
2019-04-07T21:28:16.708Z,93890.64
2019-04-07T21:31:19.923Z,93889.29
2019-04-07T21:34:07.663Z,93885.55
2019-04-07T21:37:13.346Z,93881.13
2019-04-07T21:40:08.689Z,93882.22
2019-04-07T21:43:03.461Z,93883.79
2019-04-07T21:46:02.518Z,93878.03
2019-04-07T21:49:02.560Z,93879.16
2019-04-07T21:51:55.448Z,93874.73
2019-04-07T21:54:41.604Z,93877.36
2019-04-07T21:57:28.876Z,93872.91
2019-04-07T22:00:19.199Z,93872.31
2019-04-07T22:03:08.782Z,93871.34
2019-04-07T22:05:58.060Z,93876.31
2019-04-07T22:08:47.836Z,93873.13
2019-04-07T22:11:22.620Z,93867.41
2019-04-07T22:13:51.201Z,93863.06
2019-04-07T22:16:24.137Z,93857.86
2019-04-07T22:18:53.956Z,93858.52
2019-04-07T22:21:25.663Z,93855.97
2019-04-07T22:23:56.247Z,93858.32
2019-04-07T22:26:27.508Z,93856.23
2019-04-07T22:29:01.219Z,93854.88
2019-04-07T22:31:34.174Z,93860.28
2019-04-07T22:34:04.620Z,93853.13
2019-04-07T22:36:36.234Z,93851.55
2019-04-07T22:39:07.849Z,93855.97
2019-04-07T22:41:41.116Z,93854.92
2019-04-07T22:44:11.351Z,93852.63
2019-04-07T22:46:42.043Z,93856.84
2019-04-07T22:49:13.456Z,93857.92
2019-04-07T22:51:46.022Z,93842.13
2019-04-07T22:54:16.719Z,93843.47
2019-04-07T22:56:47.600Z,93844.15
2019-04-07T22:59:18.086Z,93841.87
2019-04-07T23:01:49.345Z,93840.26
2019-04-07T23:04:20.301Z,93841.27
2019-04-07T23:06:51.094Z,93849.19
2019-04-07T23:09:23.117Z,93838.53
2019-04-07T23:11:54.478Z,93843.56
2019-04-07T23:14:25.417Z,93831.98
2019-04-07T23:16:56.243Z,93833.30
2019-04-07T23:19:27.047Z,93836.98
2019-04-07T23:21:57.834Z,93832.02
2019-04-07T23:24:28.858Z,93828.84
2019-04-07T23:26:59.192Z,93830.45
2019-04-07T23:29:30.397Z,93832.52
2019-04-07T23:32:00.719Z,93826.16
2019-04-07T23:34:31.243Z,93827.73
2019-04-07T23:37:02.022Z,93825.64
2019-04-07T23:39:33.448Z,93823.22
2019-04-07T23:42:03.788Z,93822.86
2019-04-07T23:44:35.235Z,93819.34
2019-04-07T23:47:06.849Z,93820.86
2019-04-07T23:49:38.535Z,93813.77
2019-04-07T23:52:09.253Z,93809.78
2019-04-07T23:54:39.765Z,93807.72
2019-04-07T23:57:11.369Z,93808.77
2019-04-07T23:59:42.182Z,93803.20
